createdAt,value
2023-02-02T00:01:53.126Z,5.80
2023-02-02T00:04:36.635Z,5.70
2023-02-02T00:07:05.769Z,5.50
2023-02-02T00:09:34.470Z,5.50
2023-02-02T00:12:03.070Z,5.00
2023-02-02T00:14:31.494Z,4.80
2023-02-02T00:16:59.961Z,4.30
2023-02-02T00:19:30.559Z,3.90
2023-02-02T00:21:59.428Z,3.80
2023-02-02T00:24:28.126Z,4.00
2023-02-02T00:26:59.042Z,4.40
2023-02-02T00:29:30.164Z,4.50
2023-02-02T00:31:58.723Z,3.80
2023-02-02T00:34:27.270Z,3.30
2023-02-02T00:36:55.767Z,3.30
2023-02-02T00:39:28.913Z,3.70
2023-02-02T00:41:57.339Z,3.50
2023-02-02T00:44:44.433Z,4.10
2023-02-02T00:47:12.995Z,4.00
2023-02-02T00:49:41.505Z,3.80
2023-02-02T00:52:10.174Z,4.20
2023-02-02T00:54:38.675Z,3.80
2023-02-02T00:57:07.486Z,4.00
2023-02-02T00:59:35.956Z,4.10
2023-02-02T01:02:04.503Z,3.90
2023-02-02T01:04:33.000Z,3.60
2023-02-02T01:07:01.482Z,3.50
2023-02-02T01:09:29.871Z,3.20
2023-02-02T01:11:58.623Z,3.30
2023-02-02T01:14:27.443Z,3.00
2023-02-02T01:16:57.492Z,2.90
2023-02-02T01:19:27.169Z,2.90
2023-02-02T01:21:55.638Z,3.50
2023-02-02T01:24:24.536Z,4.50
2023-02-02T01:26:53.002Z,4.70
2023-02-02T01:29:21.580Z,5.30
2023-02-02T01:31:50.527Z,4.00
2023-02-02T01:34:19.472Z,4.80
2023-02-02T01:36:48.312Z,4.40
2023-02-02T01:39:16.780Z,4.00
2023-02-02T01:41:45.233Z,4.10
2023-02-02T01:44:51.567Z,4.30
2023-02-02T01:47:23.290Z,4.20
2023-02-02T01:49:53.987Z,4.10
2023-02-02T01:52:26.322Z,3.70
2023-02-02T01:55:04.502Z,4.20
2023-02-02T01:57:44.339Z,3.70
2023-02-02T02:00:16.304Z,3.60
2023-02-02T02:02:49.163Z,4.60
2023-02-02T02:05:23.318Z,4.70
2023-02-02T02:07:54.637Z,4.70
2023-02-02T02:10:23.269Z,4.70
2023-02-02T02:12:52.237Z,4.60
2023-02-02T02:15:40.700Z,4.80
2023-02-02T02:18:33.102Z,4.60
2023-02-02T02:21:43.253Z,4.70
2023-02-02T02:25:11.370Z,4.60
2023-02-02T02:28:17.755Z,5.30
2023-02-02T02:30:52.857Z,5.30
2023-02-02T02:33:34.633Z,5.70
2023-02-02T02:36:15.455Z,4.90
2023-02-02T02:39:12.773Z,4.80
2023-02-02T02:41:49.686Z,5.10
2023-02-02T02:44:20.421Z,4.70
2023-02-02T02:46:50.738Z,5.10
2023-02-02T02:49:19.769Z,5.00
2023-02-02T02:51:52.867Z,5.00
2023-02-02T02:54:36.513Z,5.10
2023-02-02T02:57:28.497Z,5.10
2023-02-02T03:00:35.252Z,5.20
2023-02-02T03:03:29.706Z,5.40
2023-02-02T03:06:07.393Z,5.20
2023-02-02T03:09:09.025Z,5.50
2023-02-02T03:11:37.730Z,5.40
2023-02-02T03:14:09.760Z,5.10
2023-02-02T03:16:38.355Z,5.70
2023-02-02T03:19:08.571Z,6.30
2023-02-02T03:21:37.051Z,6.00
2023-02-02T03:24:05.796Z,6.00
2023-02-02T03:26:35.207Z,6.50
2023-02-02T03:29:04.352Z,6.20
2023-02-02T03:31:32.883Z,6.30
2023-02-02T03:34:01.502Z,5.60
2023-02-02T03:36:30.421Z,5.20
2023-02-02T03:38:58.878Z,5.30
2023-02-02T03:41:27.254Z,6.00
2023-02-02T03:43:55.675Z,5.70
2023-02-02T03:46:24.220Z,5.70
2023-02-02T03:48:52.698Z,5.60
2023-02-02T03:51:21.126Z,5.30
2023-02-02T03:53:49.600Z,4.90
2023-02-02T03:56:19.662Z,4.70
2023-02-02T03:58:48.141Z,4.70
2023-02-02T04:01:16.637Z,4.70
2023-02-02T04:03:46.543Z,5.10
2023-02-02T04:06:15.036Z,5.10
2023-02-02T04:08:43.444Z,5.20
2023-02-02T04:11:12.188Z,5.30
2023-02-02T04:13:41.141Z,6.20
2023-02-02T04:16:11.000Z,6.30
2023-02-02T04:18:39.890Z,6.20
2023-02-02T04:21:08.994Z,5.80
2023-02-02T04:23:38.030Z,5.60
2023-02-02T04:26:06.818Z,5.90
2023-02-02T04:28:35.540Z,5.50
2023-02-02T04:31:04.149Z,6.10
2023-02-02T04:33:34.567Z,5.50
2023-02-02T04:36:03.628Z,6.30
2023-02-02T04:38:32.207Z,6.20
2023-02-02T04:41:07.964Z,6.30
2023-02-02T04:43:37.645Z,6.90
2023-02-02T04:46:06.408Z,6.40
2023-02-02T04:48:35.112Z,6.40
2023-02-02T04:51:06.739Z,6.70
2023-02-02T04:53:36.042Z,7.70
2023-02-02T04:56:15.855Z,6.40
2023-02-02T04:58:45.807Z,6.80
2023-02-02T05:01:19.479Z,6.50
2023-02-02T05:03:49.172Z,6.50
2023-02-02T05:06:18.148Z,6.40
2023-02-02T05:08:48.987Z,6.60
2023-02-02T05:11:20.306Z,6.60
2023-02-02T05:13:51.736Z,7.00
2023-02-02T05:16:21.578Z,6.60
2023-02-02T05:18:55.425Z,6.60
2023-02-02T05:21:24.276Z,6.10
2023-02-02T05:23:52.789Z,6.30
2023-02-02T05:26:26.963Z,6.70
2023-02-02T05:28:57.125Z,6.30
2023-02-02T05:31:25.648Z,5.50
2023-02-02T05:33:54.159Z,5.30
2023-02-02T05:36:22.652Z,5.30
2023-02-02T05:38:51.172Z,5.50
2023-02-02T05:41:19.665Z,6.10
2023-02-02T05:43:48.161Z,7.50
2023-02-02T05:46:16.801Z,8.10
2023-02-02T05:48:45.273Z,8.40
2023-02-02T05:51:24.217Z,8.50
2023-02-02T05:53:52.731Z,8.60
2023-02-02T05:56:21.414Z,8.70
2023-02-02T05:58:50.100Z,8.60
2023-02-02T06:01:19.845Z,9.20
2023-02-02T06:03:48.701Z,9.80
2023-02-02T06:06:17.342Z,10.20
2023-02-02T06:08:45.746Z,9.80
2023-02-02T06:11:16.863Z,10.10
2023-02-02T06:13:46.160Z,11.60
2023-02-02T06:16:15.305Z,12.20
2023-02-02T06:18:44.080Z,12.40
2023-02-02T06:21:12.515Z,11.40
2023-02-02T06:23:46.032Z,9.90
2023-02-02T06:26:16.513Z,8.70
2023-02-02T06:28:50.245Z,10.80
2023-02-02T06:31:19.702Z,10.30
2023-02-02T06:33:54.679Z,10.20
2023-02-02T06:36:23.863Z,9.90
2023-02-02T06:38:54.946Z,9.70
2023-02-02T06:41:24.544Z,9.40
2023-02-02T06:43:53.051Z,9.60
2023-02-02T06:46:21.722Z,9.40
2023-02-02T06:48:50.277Z,10.00
2023-02-02T06:51:19.580Z,10.20
2023-02-02T06:53:49.745Z,10.40
2023-02-02T06:56:18.387Z,11.20
2023-02-02T06:58:46.856Z,10.60
2023-02-02T07:01:15.506Z,12.00
2023-02-02T07:03:44.184Z,12.10
2023-02-02T07:06:15.567Z,12.50
2023-02-02T07:08:44.525Z,11.20
2023-02-02T07:11:16.597Z,11.30
2023-02-02T07:13:47.159Z,10.80
2023-02-02T07:16:17.722Z,11.70
2023-02-02T07:18:48.569Z,9.00
2023-02-02T07:21:29.564Z,9.00
2023-02-02T07:23:58.075Z,8.60
2023-02-02T07:26:27.771Z,7.90
2023-02-02T07:28:56.348Z,8.00
2023-02-02T07:31:26.731Z,7.90
2023-02-02T07:33:55.339Z,7.90
2023-02-02T07:36:24.931Z,7.70
2023-02-02T07:39:02.525Z,8.30
2023-02-02T07:41:32.248Z,8.80
2023-02-02T07:44:00.709Z,9.60
2023-02-02T07:46:29.590Z,8.20
2023-02-02T07:48:58.294Z,7.60
2023-02-02T07:51:27.039Z,6.10
2023-02-02T07:53:58.728Z,5.70
2023-02-02T07:56:28.641Z,6.00
2023-02-02T07:58:57.717Z,5.00
2023-02-02T08:01:28.680Z,4.70
2023-02-02T08:04:03.731Z,3.80
2023-02-02T08:06:35.639Z,4.00
2023-02-02T08:09:10.489Z,3.90
2023-02-02T08:11:39.666Z,4.50
2023-02-02T08:14:08.565Z,3.60
2023-02-02T08:16:37.177Z,3.30
2023-02-02T08:19:06.067Z,3.40
2023-02-02T08:21:35.640Z,3.40
2023-02-02T08:24:05.389Z,2.70
2023-02-02T08:26:33.865Z,2.90
2023-02-02T08:29:08.592Z,3.60
2023-02-02T08:31:41.981Z,3.10
2023-02-02T08:34:12.516Z,3.20
2023-02-02T08:36:41.534Z,3.50
2023-02-02T08:39:14.537Z,3.90
2023-02-02T08:42:02.753Z,5.40
2023-02-02T08:46:00.464Z,4.30
2023-02-02T08:47:33.107Z,3.40
2023-02-02T08:50:01.597Z,3.10
2023-02-02T08:52:30.078Z,3.30
2023-02-02T08:54:58.584Z,3.20
2023-02-02T08:57:28.391Z,2.70
2023-02-02T08:59:57.079Z,3.10
2023-02-02T09:02:25.624Z,2.90
2023-02-02T09:04:54.274Z,3.30
2023-02-02T09:07:22.899Z,3.40
2023-02-02T09:09:54.212Z,2.80
2023-02-02T09:12:22.768Z,3.60
2023-02-02T09:14:51.266Z,3.40
2023-02-02T09:17:19.835Z,3.30
2023-02-02T09:19:48.416Z,3.50
2023-02-02T09:22:16.855Z,3.40
2023-02-02T09:24:45.272Z,3.10
2023-02-02T09:27:13.810Z,3.00
2023-02-02T09:29:42.236Z,2.70
2023-02-02T09:32:10.937Z,1.60
2023-02-02T09:34:40.185Z,2.10
2023-02-02T09:37:09.741Z,2.60
2023-02-02T09:39:38.154Z,2.20
2023-02-02T09:42:06.505Z,2.10
2023-02-02T09:44:38.004Z,1.90
2023-02-02T09:47:27.943Z,2.10
2023-02-02T09:49:59.416Z,1.30
2023-02-02T09:52:43.915Z,1.90
2023-02-02T09:55:23.572Z,1.50
2023-02-02T09:57:57.350Z,1.80
2023-02-02T10:00:35.436Z,1.90
2023-02-02T10:03:16.276Z,1.80
2023-02-02T10:06:13.841Z,2.70
2023-02-02T10:09:28.932Z,2.20
2023-02-02T10:11:57.429Z,2.10
2023-02-02T10:14:32.911Z,2.40
2023-02-02T10:17:19.037Z,2.00
2023-02-02T10:19:53.038Z,2.10
2023-02-02T10:22:26.037Z,1.40
2023-02-02T10:27:37.902Z,1.90
2023-02-02T10:30:47.018Z,2.00
2023-02-02T10:33:29.189Z,2.00
2023-02-02T10:36:07.820Z,2.00
2023-02-02T10:38:53.184Z,1.60
2023-02-02T10:41:41.667Z,2.60
2023-02-02T10:44:36.564Z,1.70
2023-02-02T10:47:10.023Z,1.40
2023-02-02T10:49:40.527Z,1.70
2023-02-02T10:52:12.044Z,1.70
2023-02-02T10:55:05.572Z,1.70
2023-02-02T10:58:12.689Z,1.90
2023-02-02T11:00:58.397Z,1.30
2023-02-02T11:03:32.958Z,1.10
2023-02-02T11:06:23.066Z,1.50
2023-02-02T11:08:57.271Z,1.50
2023-02-02T11:11:34.679Z,1.80
2023-02-02T11:14:09.593Z,1.40
2023-02-02T11:16:44.640Z,1.50
2023-02-02T11:19:19.875Z,1.20
2023-02-02T11:21:53.143Z,2.10
2023-02-02T11:24:26.836Z,1.70
2023-02-02T11:27:05.755Z,1.60
2023-02-02T11:29:43.951Z,1.60
2023-02-02T11:32:35.436Z,1.40
2023-02-02T11:35:09.083Z,1.70
2023-02-02T11:38:14.656Z,1.50
2023-02-02T11:40:52.574Z,1.80
2023-02-02T11:43:28.725Z,2.00
2023-02-02T11:46:03.195Z,1.60
2023-02-02T11:48:39.495Z,1.70
2023-02-02T11:51:21.336Z,1.70
2023-02-02T11:53:58.665Z,2.00
2023-02-02T11:56:27.566Z,1.60
2023-02-02T11:58:59.479Z,1.60
2023-02-02T12:01:30.535Z,2.10
2023-02-02T12:04:22.180Z,1.60
2023-02-02T12:06:50.662Z,2.30
2023-02-02T12:09:24.765Z,1.60
2023-02-02T12:12:17.769Z,1.50
2023-02-02T12:15:20.108Z,1.50
2023-02-02T12:17:52.762Z,1.60
2023-02-02T12:23:09.415Z,1.90
2023-02-02T12:26:00.419Z,1.80
2023-02-02T12:29:04.024Z,1.40
2023-02-02T12:34:49.251Z,1.50
2023-02-02T12:37:30.356Z,1.50
2023-02-02T12:40:24.042Z,2.10
2023-02-02T12:43:22.215Z,1.90
2023-02-02T12:45:53.581Z,2.50
2023-02-02T12:48:38.907Z,1.90
2023-02-02T12:51:37.289Z,2.40
2023-02-02T12:54:32.663Z,2.30
2023-02-02T12:57:08.710Z,1.90
2023-02-02T12:59:58.617Z,2.10
2023-02-02T13:02:58.116Z,1.80
2023-02-02T13:05:42.095Z,1.80
2023-02-02T13:08:15.058Z,1.50
2023-02-02T13:13:24.891Z,1.50
2023-02-02T13:16:12.852Z,1.50
2023-02-02T13:19:01.733Z,1.70
2023-02-02T13:21:31.691Z,1.70
2023-02-02T13:24:05.106Z,1.80
2023-02-02T13:26:45.215Z,1.70
2023-02-02T13:29:48.375Z,1.60
2023-02-02T13:35:19.397Z,1.70
2023-02-02T13:38:14.905Z,1.70
2023-02-02T13:40:44.295Z,2.00
2023-02-02T13:43:19.147Z,1.40
2023-02-02T13:46:06.253Z,1.70
2023-02-02T13:49:06.893Z,1.80
2023-02-02T13:51:58.536Z,2.10
2023-02-02T13:54:47.514Z,1.90
2023-02-02T13:57:59.375Z,2.20
2023-02-02T14:00:35.084Z,2.70
2023-02-02T14:03:07.438Z,2.80
2023-02-02T14:05:40.232Z,2.20
2023-02-02T14:10:40.305Z,3.30
2023-02-02T14:13:39.220Z,2.50
2023-02-02T14:16:19.414Z,3.00
2023-02-02T14:18:56.979Z,6.80
2023-02-02T14:21:31.516Z,3.30
2023-02-02T14:24:22.522Z,4.50
2023-02-02T14:26:59.875Z,6.30
2023-02-02T14:29:39.684Z,4.90
2023-02-02T14:32:29.760Z,5.00
2023-02-02T14:35:25.005Z,3.10
2023-02-02T14:38:14.810Z,5.80
2023-02-02T14:40:49.111Z,4.20
2023-02-02T14:43:46.492Z,3.90
2023-02-02T14:46:14.973Z,3.20
2023-02-02T14:48:48.036Z,2.80
2023-02-02T14:51:26.794Z,3.70
2023-02-02T14:54:05.367Z,7.10
2023-02-02T14:56:54.583Z,5.10
2023-02-02T14:59:37.568Z,4.00
2023-02-02T15:02:15.545Z,4.20
2023-02-02T15:04:52.184Z,3.90
2023-02-02T15:07:24.173Z,4.40
2023-02-02T15:09:56.626Z,5.90
2023-02-02T15:12:40.058Z,4.60
2023-02-02T15:15:21.237Z,4.80
2023-02-02T15:18:03.120Z,5.10
2023-02-02T15:20:37.333Z,5.30
2023-02-02T15:23:33.851Z,4.60
2023-02-02T15:26:25.069Z,4.90
2023-02-02T15:28:59.710Z,4.30
2023-02-02T15:31:34.218Z,4.10
2023-02-02T15:34:46.121Z,3.90
2023-02-02T15:37:23.493Z,3.60
2023-02-02T15:40:00.041Z,3.90
2023-02-02T15:42:58.951Z,3.90
2023-02-02T15:45:49.319Z,4.50
2023-02-02T15:48:30.232Z,3.80
2023-02-02T15:51:05.469Z,4.60
2023-02-02T15:53:43.188Z,4.80
2023-02-02T15:56:24.457Z,5.20
2023-02-02T15:58:55.683Z,4.60
2023-02-02T16:01:26.712Z,4.00
2023-02-02T16:04:17.980Z,4.20
2023-02-02T16:06:48.156Z,4.60
2023-02-02T16:09:27.000Z,5.90
2023-02-02T16:11:55.608Z,6.70
2023-02-02T16:14:24.209Z,7.00
2023-02-02T16:16:52.996Z,7.70
2023-02-02T16:19:24.029Z,8.40
2023-02-02T16:22:08.031Z,8.00
2023-02-02T16:24:44.304Z,7.80
2023-02-02T16:27:19.804Z,7.80
2023-02-02T16:29:49.666Z,9.50
2023-02-02T16:32:37.340Z,10.70
2023-02-02T16:35:24.415Z,10.60
2023-02-02T16:37:52.981Z,12.10
2023-02-02T16:40:30.154Z,13.30
2023-02-02T16:43:07.338Z,13.30
2023-02-02T16:45:45.869Z,12.90
2023-02-02T16:48:34.550Z,13.00
2023-02-02T16:51:34.019Z,11.60
2023-02-02T16:54:20.611Z,10.40
2023-02-02T16:57:00.844Z,10.10
2023-02-02T16:59:35.576Z,10.00
2023-02-02T17:02:21.206Z,10.20
2023-02-02T17:04:53.761Z,9.60
2023-02-02T17:07:22.847Z,10.30
2023-02-02T17:10:18.707Z,9.40
2023-02-02T17:12:47.380Z,8.20
2023-02-02T17:15:18.849Z,8.60
2023-02-02T17:17:49.444Z,7.50
2023-02-02T17:20:18.916Z,7.90
2023-02-02T17:22:55.025Z,7.50
2023-02-02T17:25:30.219Z,8.20
2023-02-02T17:28:00.340Z,7.60
2023-02-02T17:30:29.636Z,7.00
2023-02-02T17:32:58.180Z,6.60
2023-02-02T17:35:34.648Z,7.40
2023-02-02T17:38:08.624Z,10.10
2023-02-02T17:40:37.275Z,12.90
2023-02-02T17:43:07.223Z,12.80
2023-02-02T17:45:38.723Z,11.90
2023-02-02T17:48:09.848Z,12.10
2023-02-02T17:50:39.345Z,13.60
2023-02-02T17:53:12.340Z,14.80
2023-02-02T17:55:43.232Z,15.10
2023-02-02T17:58:15.093Z,13.70
2023-02-02T18:00:46.805Z,13.40
2023-02-02T18:03:27.288Z,11.70
2023-02-02T18:05:57.741Z,11.20
2023-02-02T18:08:26.431Z,7.50
2023-02-02T18:10:55.011Z,6.90
2023-02-02T18:13:24.047Z,6.30
2023-02-02T18:15:54.105Z,6.20
2023-02-02T18:18:23.212Z,6.00
2023-02-02T18:20:51.892Z,5.90
2023-02-02T18:23:20.682Z,5.50
2023-02-02T18:25:49.507Z,6.50
2023-02-02T18:28:18.152Z,7.10
2023-02-02T18:30:47.768Z,7.30
2023-02-02T18:33:19.880Z,6.40
2023-02-02T18:35:48.669Z,6.50
2023-02-02T18:38:18.208Z,6.20
2023-02-02T18:40:55.285Z,6.60
2023-02-02T18:43:23.748Z,6.40
2023-02-02T18:46:06.375Z,6.90
2023-02-02T18:48:36.244Z,7.40
2023-02-02T18:51:08.938Z,7.80
2023-02-02T18:53:37.417Z,8.00
2023-02-02T18:56:07.666Z,7.80
2023-02-02T18:58:37.296Z,8.00
2023-02-02T19:01:14.367Z,7.90
2023-02-02T19:03:43.470Z,7.70
2023-02-02T19:06:30.802Z,8.20
2023-02-02T19:08:59.445Z,7.10
2023-02-02T19:11:39.228Z,7.40
2023-02-02T19:14:19.771Z,7.00
2023-02-02T19:16:48.963Z,7.80
2023-02-02T19:19:33.587Z,7.70
2023-02-02T19:22:12.939Z,6.70
2023-02-02T19:24:41.437Z,6.60
2023-02-02T19:27:21.579Z,7.00
2023-02-02T19:29:52.907Z,7.40
2023-02-02T19:32:23.650Z,7.70
2023-02-02T19:34:53.206Z,7.20
2023-02-02T19:37:33.064Z,7.40
2023-02-02T19:40:07.440Z,7.20
2023-02-02T19:42:46.153Z,6.90
2023-02-02T19:45:23.938Z,6.60
2023-02-02T19:47:54.559Z,6.30
2023-02-02T19:50:26.400Z,6.80
2023-02-02T19:52:56.158Z,5.20
2023-02-02T19:55:35.090Z,4.20
2023-02-02T19:58:21.935Z,4.50
2023-02-02T20:00:52.453Z,4.40
2023-02-02T20:03:24.711Z,4.20
2023-02-02T20:05:55.595Z,5.30
2023-02-02T20:08:26.999Z,4.40
2023-02-02T20:11:00.852Z,4.60
2023-02-02T20:13:32.378Z,6.70
2023-02-02T20:16:04.407Z,5.50
2023-02-02T20:18:44.727Z,4.10
2023-02-02T20:21:43.179Z,3.80
2023-02-02T20:24:19.284Z,3.70
2023-02-02T20:26:47.883Z,3.80
2023-02-02T20:29:25.701Z,4.20
2023-02-02T20:31:57.108Z,4.60
2023-02-02T20:34:35.729Z,3.80
2023-02-02T20:37:13.100Z,4.30
2023-02-02T20:39:41.733Z,4.50
2023-02-02T20:42:10.383Z,3.90
2023-02-02T20:44:38.956Z,4.10
2023-02-02T20:47:09.013Z,4.90
2023-02-02T20:49:38.692Z,4.50
2023-02-02T20:52:11.166Z,4.10
2023-02-02T20:54:39.953Z,3.80
2023-02-02T20:57:08.623Z,3.00
2023-02-02T20:59:37.142Z,3.30
2023-02-02T21:02:06.458Z,3.40
2023-02-02T21:04:35.197Z,3.40
2023-02-02T21:07:03.755Z,3.60
2023-02-02T21:09:32.243Z,3.30
2023-02-02T21:12:00.685Z,3.10
2023-02-02T21:14:29.215Z,2.30
2023-02-02T21:17:12.907Z,2.90
2023-02-02T21:19:43.989Z,2.80
2023-02-02T21:22:13.025Z,2.50
2023-02-02T21:24:42.797Z,2.70
2023-02-02T21:27:11.381Z,2.70
2023-02-02T21:29:40.349Z,2.80
2023-02-02T21:32:09.007Z,2.20
2023-02-02T21:34:37.951Z,2.20
2023-02-02T21:37:14.147Z,2.30
2023-02-02T21:39:48.801Z,2.10
2023-02-02T21:42:22.507Z,2.00
2023-02-02T21:44:54.254Z,2.10
2023-02-02T21:47:25.576Z,2.40
2023-02-02T21:50:02.890Z,3.00
2023-02-02T21:52:34.086Z,3.30
2023-02-02T21:55:27.612Z,3.50
2023-02-02T21:57:58.505Z,3.50
2023-02-02T22:00:32.580Z,4.10
2023-02-02T22:03:01.046Z,3.90
2023-02-02T22:05:36.168Z,3.10
2023-02-02T22:08:21.023Z,3.30
2023-02-02T22:10:49.942Z,3.40
2023-02-02T22:13:21.009Z,3.00
2023-02-02T22:15:51.914Z,3.90
2023-02-02T22:18:23.739Z,3.10
2023-02-02T22:20:54.657Z,3.10
2023-02-02T22:23:28.420Z,2.90
2023-02-02T22:25:58.483Z,3.10
2023-02-02T22:28:36.875Z,2.40
2023-02-02T22:31:05.875Z,3.00
2023-02-02T22:33:34.417Z,3.00
2023-02-02T22:36:03.241Z,3.40
2023-02-02T22:38:31.703Z,4.40
2023-02-02T22:41:00.175Z,3.60
2023-02-02T22:43:28.565Z,4.00
2023-02-02T22:45:57.071Z,3.80
2023-02-02T22:48:25.557Z,4.70
2023-02-02T22:50:54.000Z,5.10
2023-02-02T22:53:22.533Z,4.10
2023-02-02T22:55:56.531Z,4.70
2023-02-02T22:58:25.712Z,4.90
2023-02-02T23:00:54.199Z,4.00
2023-02-02T23:03:22.609Z,4.20
2023-02-02T23:05:51.025Z,4.60
2023-02-02T23:08:19.430Z,5.00
2023-02-02T23:10:48.192Z,4.70
2023-02-02T23:13:16.661Z,5.00
2023-02-02T23:15:45.200Z,4.70
2023-02-02T23:18:13.652Z,4.80
2023-02-02T23:20:42.061Z,4.50
2023-02-02T23:23:10.510Z,4.40
2023-02-02T23:25:38.920Z,4.70
2023-02-02T23:28:09.795Z,5.10
2023-02-02T23:30:38.243Z,4.10
2023-02-02T23:33:06.678Z,4.50
2023-02-02T23:35:35.055Z,4.30
2023-02-02T23:38:03.495Z,4.50
2023-02-02T23:40:31.919Z,4.00
2023-02-02T23:43:00.281Z,4.10
2023-02-02T23:45:28.679Z,4.40
2023-02-02T23:47:57.074Z,4.10
2023-02-02T23:50:25.815Z,4.20
2023-02-02T23:52:54.556Z,4.30
2023-02-02T23:55:22.926Z,4.50
2023-02-02T23:57:51.394Z,4.60
